LPAZ/SMA METAR and TAF weather

Enter ICAO airport designator
Station Type Date Time Source
LPAZ METAR 2020/04/03 06:30 UTC NOAA

LPAZ 030630Z 17010KT 9999 FEW004 16/15 Q0998


Station Type Date Time Source
LPAZ Decoded METAR 2020/04/03 06:30 UTC NOAA

Santa Maria Acores , Portugal (LPAZ) 36-58N 025-10W 100M
Apr 03, 2020 - 02:30 AM EDT / 2020.04.03 0630 UTC
Wind: from the S (170 degrees) at 12 MPH (10 KT):0
Visibility: greater than 7 mile(s):0
Sky conditions: mostly clear
Temperature: 60 F (16 C)
Dew Point: 59 F (15 C)
Relative Humidity: 93%
Pressure (altimeter): 29.47 in. Hg (0998 hPa)
ob: LPAZ 030630Z 17010KT 9999 FEW004 16/15 Q0998
cycle: 6

Station Type Date Time Source
LPAZ TAF 2020/04/03 06:18 UTC NOAA

TAF TAF LPAZ 030500Z 0306/0412 20012KT 9999 SCT012 SCT025
TEMPO 0306/0406 5000 SHRA BKN010 FEW020CB PROB30
TEMPO 0306/0312 3000 TSRA BKN008 SCT015CB
BECMG 0309/0312 21017KT
BECMG 0321/0324 25022KT
TEMPO 0400/0410 25025G38KT
TEMPO 0406/0412 8000 SHRA BKN015

Example: see airport list